Time;durP1;ratioP1;P1;durP2;ratioP2;P2;SDS_P1;SDS_P2;PMS_P1;PMS_P2;Temp;Humidity;BMP_temperature;BMP_pressure;BME280_temperature;BME280_humidity;BME280_pressure;Samples;Min_cycle;Max_cycle;Signal;HPM_P1;HPM_P2
2023/11/29 00:00:16;;;;;;;12.77;9.18;;;0.70;97.30;;;;;;5012804;28;20546;-93
2023/11/29 00:02:42;;;;;;;13.48;8.40;;;0.70;98.40;;;;;;5011157;28;20026;-94
2023/11/29 00:05:08;;;;;;;10.88;8.15;;;0.60;97.50;;;;;;5014450;28;20381;-93
2023/11/29 00:07:34;;;;;;;14.23;9.85;;;0.70;98.00;;;;;;5009999;28;20489;-93
2023/11/29 00:10:00;;;;;;;14.43;10.32;;;0.70;98.80;;;;;;5018482;28;20027;-93
2023/11/29 00:12:26;;;;;;;13.55;10.15;;;0.60;98.90;;;;;;5011386;28;20026;-93
2023/11/29 00:14:51;;;;;;;14.68;8.55;;;0.60;98.40;;;;;;5015526;28;20030;-93
2023/11/29 00:17:17;;;;;;;15.68;9.82;;;0.70;98.90;;;;;;5009389;28;20037;-90
2023/11/29 00:19:43;;;;;;;16.40;11.05;;;0.60;98.90;;;;;;5000955;28;20030;-94
2023/11/29 00:22:12;;;;;;;13.82;9.60;;;0.60;98.90;;;;;;5015163;28;20025;-92
2023/11/29 00:24:38;;;;;;;13.93;9.65;;;0.60;98.60;;;;;;5017863;28;20101;-93
2023/11/29 00:27:07;;;;;;;13.10;8.57;;;0.60;98.80;;;;;;5016587;28;20042;-93
2023/11/29 00:29:33;;;;;;;13.88;8.95;;;0.60;98.20;;;;;;5016094;28;20037;-92
2023/11/29 00:31:58;;;;;;;14.20;9.20;;;0.50;97.40;;;;;;5007533;28;20129;-94
2023/11/29 00:34:24;;;;;;;15.55;9.65;;;0.50;97.40;;;;;;5014319;28;20053;-92
2023/11/29 00:36:51;;;;;;;13.52;9.20;;;0.50;97.30;;;;;;5010864;28;20032;-93
2023/11/29 00:39:20;;;;;;;12.85;9.23;;;0.40;97.80;;;;;;5011512;28;20076;-92
2023/11/29 00:41:46;;;;;;;11.85;9.52;;;0.50;98.50;;;;;;5011468;28;20033;-92
2023/11/29 00:44:12;;;;;;;13.93;9.38;;;0.40;98.10;;;;;;5017682;28;20022;-91
2023/11/29 00:46:38;;;;;;;12.27;9.32;;;0.40;97.60;;;;;;5019053;28;20029;-93
2023/11/29 00:49:03;;;;;;;14.38;9.52;;;0.50;97.30;;;;;;5008235;28;20105;-92
2023/11/29 00:51:29;;;;;;;12.55;9.90;;;0.40;96.50;;;;;;5007748;28;20532;-92
2023/11/29 00:53:54;;;;;;;12.75;7.97;;;0.30;96.50;;;;;;5009050;28;20030;-92
2023/11/29 00:56:20;;;;;;;11.35;8.05;;;0.30;96.20;;;;;;5015943;28;20373;-93
2023/11/29 00:58:45;;;;;;;12.02;8.65;;;0.30;96.50;;;;;;5010201;28;20093;-92
2023/11/29 01:01:17;;;;;;;11.63;8.05;;;0.20;96.60;;;;;;5013691;28;20034;-93
2023/11/29 01:03:43;;;;;;;13.15;8.52;;;0.20;96.50;;;;;;5015510;28;20033;-92
2023/11/29 01:06:08;;;;;;;11.77;7.28;;;0.20;96.80;;;;;;5013626;28;20022;-93
2023/11/29 01:08:35;;;;;;;13.02;8.98;;;0.20;96.70;;;;;;5013412;28;20492;-91
2023/11/29 01:11:01;;;;;;;11.38;7.78;;;0.10;97.10;;;;;;5010258;28;20037;-93
2023/11/29 01:13:28;;;;;;;11.85;7.65;;;0.10;97.50;;;;;;5017522;28;20033;-93
2023/11/29 01:15:54;;;;;;;12.02;8.02;;;0.10;97.70;;;;;;5015139;28;20026;-94
2023/11/29 01:18:20;;;;;;;12.23;7.82;;;0.10;97.80;;;;;;5014607;28;20037;-95
2023/11/29 01:20:49;;;;;;;11.07;8.30;;;0.10;97.40;;;;;;5015753;28;20037;-92
2023/11/29 01:23:15;;;;;;;10.27;7.72;;;0.10;97.70;;;;;;5012318;28;20026;-93
2023/11/29 01:25:41;;;;;;;12.63;9.30;;;0.00;97.90;;;;;;5012735;28;20022;-93
2023/11/29 01:28:07;;;;;;;12.55;8.25;;;0.00;98.40;;;;;;5014369;28;20021;-92
2023/11/29 01:30:33;;;;;;;13.15;7.53;;;-0.10;98.90;;;;;;5019539;28;20547;-92
2023/11/29 01:32:59;;;;;;;12.13;8.13;;;-0.10;99.40;;;;;;5015204;28;20053;-94
2023/11/29 01:35:24;;;;;;;12.57;9.48;;;-0.10;99.70;;;;;;5014415;28;20099;-92
2023/11/29 01:37:50;;;;;;;11.73;7.50;;;-0.20;99.90;;;;;;5022193;28;20029;-92
2023/11/29 01:40:16;;;;;;;11.65;8.65;;;-0.20;99.90;;;;;;5009231;28;20026;-93
2023/11/29 01:42:41;;;;;;;12.80;9.27;;;-0.20;99.90;;;;;;5011805;28;20022;-93
2023/11/29 01:45:07;;;;;;;13.15;8.10;;;-0.20;99.90;;;;;;5016268;28;20021;-93
2023/11/29 01:47:34;;;;;;;13.82;9.70;;;-0.30;99.90;;;;;;5017444;28;20033;-93
2023/11/29 01:50:10;;;;;;;12.88;8.05;;;-0.30;99.90;;;;;;5003600;28;20058;-92
2023/11/29 01:52:36;;;;;;;12.93;8.27;;;-0.20;99.90;;;;;;5012859;28;20017;-93
2023/11/29 01:55:03;;;;;;;15.00;8.98;;;-0.20;99.90;;;;;;5010857;28;20033;-92
2023/11/29 01:57:29;;;;;;;13.15;9.15;;;-0.10;99.90;;;;;;5016081;28;20465;-93
2023/11/29 01:59:55;;;;;;;13.07;9.13;;;-0.20;99.90;;;;;;5017723;28;20030;-93
2023/11/29 02:02:24;;;;;;;13.68;9.38;;;-0.10;99.90;;;;;;5016898;28;20029;-92
2023/11/29 02:04:50;;;;;;;14.77;9.38;;;0.00;99.90;;;;;;5009212;28;20038;-90
2023/11/29 02:07:20;;;;;;;13.80;9.57;;;-0.10;99.90;;;;;;5018552;28;20030;-92
2023/11/29 02:09:45;;;;;;;13.43;9.10;;;0.00;99.90;;;;;;5015251;28;20026;-92
2023/11/29 02:12:11;;;;;;;14.98;8.13;;;0.00;99.90;;;;;;5018925;28;20018;-91
2023/11/29 02:14:43;;;;;;;15.18;9.52;;;0.00;99.90;;;;;;5018581;28;20499;-90
2023/11/29 02:17:09;;;;;;;13.07;8.68;;;0.00;99.90;;;;;;5018602;28;20022;-92
2023/11/29 02:19:35;;;;;;;11.68;8.35;;;0.00;99.90;;;;;;5018553;28;20021;-92
2023/11/29 02:22:04;;;;;;;13.57;8.80;;;0.00;99.90;;;;;;5017010;28;20543;-92
2023/11/29 02:24:56;;;;;;;13.00;9.15;;;0.00;99.90;;;;;;5010656;28;20037;-91
2023/11/29 02:27:23;;;;;;;15.18;9.68;;;0.00;99.90;;;;;;5019664;28;20058;-93
2023/11/29 02:29:49;;;;;;;14.57;9.15;;;-0.10;99.90;;;;;;5018408;28;20512;-93
2023/11/29 02:32:14;;;;;;;13.30;8.40;;;-0.10;99.90;;;;;;5020774;28;20036;-93
2023/11/29 02:34:40;;;;;;;17.52;9.45;;;0.00;99.90;;;;;;5018090;28;20030;-91
2023/11/29 02:37:05;;;;;;;15.68;9.05;;;0.00;99.90;;;;;;5013566;28;20030;-91
2023/11/29 02:39:31;;;;;;;14.10;9.57;;;0.00;99.90;;;;;;5005663;28;20405;-93
2023/11/29 02:41:57;;;;;;;16.15;9.55;;;0.10;99.90;;;;;;5016535;28;20499;-94
2023/11/29 02:44:23;;;;;;;15.43;9.50;;;0.10;99.90;;;;;;5013972;28;20034;-93
2023/11/29 02:46:49;;;;;;;13.13;8.18;;;0.10;99.90;;;;;;5015424;28;20553;-90
2023/11/29 02:49:15;;;;;;;14.38;9.02;;;0.20;99.90;;;;;;5016550;28;20030;-92
2023/11/29 02:51:43;;;;;;;12.35;8.00;;;0.20;99.90;;;;;;5013872;28;20037;-90
2023/11/29 02:54:11;;;;;;;;;;;0.20;99.80;;;;;;5015289;28;20028;-93
2023/11/29 02:56:37;;;;;;;12.18;8.63;;;0.30;99.40;;;;;;5017821;28;19909;-94
2023/11/29 02:59:03;;;;;;;13.73;8.57;;;0.30;99.60;;;;;;5011315;28;20036;-91
2023/11/29 03:01:28;;;;;;;12.35;8.48;;;0.30;99.20;;;;;;5014494;28;20042;-91
2023/11/29 03:03:54;;;;;;;14.13;7.65;;;0.30;99.20;;;;;;5017942;28;20022;-92
2023/11/29 03:06:20;;;;;;;13.55;8.35;;;0.30;99.40;;;;;;5016168;28;20034;-93
2023/11/29 03:08:45;;;;;;;16.02;8.60;;;0.30;97.70;;;;;;5016385;28;20101;-93
2023/11/29 03:11:11;;;;;;;13.90;8.68;;;0.30;98.40;;;;;;5017079;28;20523;-92
2023/11/29 03:13:37;;;;;;;14.30;8.32;;;0.30;98.30;;;;;;5016983;28;20029;-92
2023/11/29 03:16:02;;;;;;;13.85;7.20;;;0.30;98.00;;;;;;5016523;28;20026;-93
2023/11/29 03:18:32;;;;;;;14.13;7.90;;;0.30;96.90;;;;;;5009572;28;20031;-93
2023/11/29 03:20:58;;;;;;;12.05;7.47;;;0.30;97.60;;;;;;5016417;28;20026;-93
2023/11/29 03:23:24;;;;;;;13.32;7.93;;;0.30;97.60;;;;;;5004234;28;20089;-92
2023/11/29 03:25:49;;;;;;;15.20;7.93;;;0.40;95.70;;;;;;5017218;28;20492;-93
2023/11/29 03:28:15;;;;;;;14.60;8.55;;;0.40;96.30;;;;;;5009312;28;20116;-92
2023/11/29 03:30:41;;;;;;;13.98;9.43;;;0.40;96.10;;;;;;5013747;28;20034;-94
2023/11/29 03:33:06;;;;;;;13.02;8.27;;;0.40;96.00;;;;;;5015781;28;20048;-93
2023/11/29 03:35:32;;;;;;;15.05;8.35;;;0.40;96.20;;;;;;5016421;28;20037;-92
2023/11/29 03:37:57;;;;;;;14.27;8.65;;;0.40;95.90;;;;;;5014332;28;20145;-94
2023/11/29 03:40:23;;;;;;;16.52;9.07;;;0.40;96.10;;;;;;5013251;28;20022;-93
2023/11/29 03:42:51;;;;;;;15.07;8.55;;;0.30;96.10;;;;;;5013963;28;20030;-94
2023/11/29 03:45:17;;;;;;;;;;;0.30;96.30;;;;;;5011259;28;20435;-93
2023/11/29 03:47:42;;;;;;;13.85;6.80;;;0.30;96.60;;;;;;5011698;28;19964;-93
2023/11/29 03:50:08;;;;;;;15.95;7.75;;;0.20;97.10;;;;;;5012550;28;20029;-92
2023/11/29 03:52:34;;;;;;;12.43;7.82;;;0.30;97.70;;;;;;5015723;28;20049;-93
2023/11/29 03:55:08;;;;;;;12.77;7.90;;;0.30;98.00;;;;;;5015507;28;20056;-93
2023/11/29 03:57:34;;;;;;;14.93;8.18;;;0.30;98.20;;;;;;5006812;28;20018;-91
2023/11/29 04:00:00;;;;;;;11.98;7.63;;;0.20;98.10;;;;;;5011192;28;20022;-91
2023/11/29 04:02:26;;;;;;;14.82;8.02;;;0.30;97.90;;;;;;5016022;28;20037;-93
2023/11/29 04:04:51;;;;;;;14.05;8.38;;;0.30;97.80;;;;;;5015666;28;20026;-93
2023/11/29 04:07:17;;;;;;;12.65;8.25;;;0.30;97.30;;;;;;5008232;28;20105;-92
2023/11/29 04:09:42;;;;;;;13.27;7.90;;;0.30;98.40;;;;;;5006382;28;20038;-93
2023/11/29 04:12:09;;;;;;;11.52;7.13;;;0.30;98.70;;;;;;5014681;28;20405;-93
2023/11/29 04:14:37;;;;;;;15.63;9.45;;;0.30;99.60;;;;;;5014879;28;20073;-92
2023/11/29 04:17:03;;;;;;;21.08;9.55;;;0.20;99.70;;;;;;5006908;28;20118;-91
2023/11/29 04:19:28;;;;;;;15.13;7.82;;;0.20;99.10;;;;;;5014932;28;20099;-90
2023/11/29 04:21:56;;;;;;;15.60;7.65;;;0.30;99.80;;;;;;5009975;28;20022;-92
2023/11/29 04:24:21;;;;;;;12.70;8.15;;;0.30;99.60;;;;;;5016084;28;20033;-92
2023/11/29 04:26:47;;;;;;;12.60;7.07;;;0.30;99.70;;;;;;5014897;28;20030;-92
2023/11/29 04:29:13;;;;;;;11.85;7.20;;;0.30;99.10;;;;;;5014132;28;20030;-92
2023/11/29 04:31:39;;;;;;;13.93;7.72;;;0.30;97.70;;;;;;5013821;28;20022;-93
2023/11/29 04:34:05;;;;;;;13.73;8.35;;;0.40;98.00;;;;;;5014601;28;20105;-92
2023/11/29 04:36:31;;;;;;;10.88;6.82;;;0.40;98.20;;;;;;5014029;28;20044;-93
2023/11/29 04:38:57;;;;;;;10.82;6.95;;;0.50;97.40;;;;;;5014950;28;20026;-93
2023/11/29 04:41:24;;;;;;;11.10;6.03;;;0.50;96.90;;;;;;5016175;28;20022;-93
2023/11/29 04:43:50;;;;;;;11.65;6.85;;;0.60;96.10;;;;;;5017116;28;20125;-94
2023/11/29 04:46:16;;;;;;;9.30;6.07;;;0.60;96.30;;;;;;5016356;28;20538;-92
2023/11/29 04:48:43;;;;;;;10.52;7.55;;;0.70;94.30;;;;;;5016110;28;20017;-93
2023/11/29 04:51:12;;;;;;;13.38;7.85;;;0.70;94.30;;;;;;5015462;28;20018;-92
2023/11/29 04:53:43;;;;;;;11.48;7.50;;;0.70;93.90;;;;;;5008305;28;20065;-92
2023/11/29 04:56:09;;;;;;;10.32;7.40;;;0.80;92.80;;;;;;5010567;28;20022;-93
2023/11/29 04:58:39;;;;;;;9.60;6.30;;;0.80;93.10;;;;;;5008416;28;20022;-93
2023/11/29 05:01:11;;;;;;;8.07;5.38;;;0.90;93.50;;;;;;5012992;28;20018;-91
2023/11/29 05:03:37;;;;;;;10.55;6.35;;;0.90;92.40;;;;;;5018744;28;20026;-94
2023/11/29 05:06:12;;;;;;;10.77;7.28;;;0.90;92.50;;;;;;5010339;28;20026;-93
2023/11/29 05:08:38;;;;;;;9.15;6.03;;;1.00;92.40;;;;;;5016833;28;20106;-93
2023/11/29 05:11:04;;;;;;;11.50;7.35;;;1.00;92.50;;;;;;5010252;28;20133;-93
2023/11/29 05:13:31;;;;;;;9.40;7.18;;;1.00;92.60;;;;;;5021769;28;20044;-93
2023/11/29 05:16:05;;;;;;;11.00;6.47;;;1.10;92.40;;;;;;5010434;28;20128;-92
2023/11/29 05:18:31;;;;;;;;;;;1.10;91.20;;;;;;5016109;28;20141;-91
2023/11/29 05:20:57;;;;;;;11.50;6.72;;;1.10;91.90;;;;;;5018157;28;20379;-94
2023/11/29 05:23:23;;;;;;;9.00;5.88;;;1.10;91.50;;;;;;5019305;28;20064;-92
2023/11/29 05:25:49;;;;;;;9.60;6.25;;;1.10;91.20;;;;;;5016234;28;20033;-95
2023/11/29 05:28:15;;;;;;;10.63;5.72;;;1.20;91.20;;;;;;5021339;28;20022;-92
2023/11/29 05:30:41;;;;;;;8.85;5.90;;;1.20;90.50;;;;;;5011357;28;20557;-95
2023/11/29 05:33:09;;;;;;;11.20;6.88;;;1.20;90.80;;;;;;5018769;28;20033;-92
2023/11/29 05:35:37;;;;;;;11.65;7.35;;;1.20;90.60;;;;;;5019314;28;20064;-91
2023/11/29 05:38:03;;;;;;;;;;;1.30;90.90;;;;;;5015045;28;20076;-93
2023/11/29 05:40:29;;;;;;;8.50;5.53;;;1.30;90.70;;;;;;5013856;28;20422;-94
2023/11/29 05:42:55;;;;;;;8.65;5.78;;;1.30;90.60;;;;;;5010956;28;20025;-94
2023/11/29 05:45:20;;;;;;;11.23;7.50;;;1.30;91.00;;;;;;5012336;28;20242;-93
2023/11/29 05:47:49;;;;;;;7.28;4.68;;;1.30;90.80;;;;;;5019243;28;20026;-94
2023/11/29 05:50:15;;;;;;;7.55;5.57;;;1.40;89.20;;;;;;5009367;28;20513;-93
2023/11/29 05:52:40;;;;;;;11.43;6.70;;;1.40;89.30;;;;;;5012805;28;20030;-94
2023/11/29 05:55:09;;;;;;;10.15;6.50;;;1.30;90.20;;;;;;5019767;28;20022;-93
2023/11/29 05:57:35;;;;;;;7.88;5.55;;;1.20;90.60;;;;;;5011886;28;20196;-90
2023/11/29 06:00:10;;;;;;;8.75;6.28;;;1.20;90.50;;;;;;5014902;28;20018;-95
2023/11/29 06:02:37;;;;;;;9.27;5.47;;;1.20;90.30;;;;;;5016697;28;20072;-92
2023/11/29 06:05:04;;;;;;;7.20;6.00;;;1.20;90.40;;;;;;5020812;28;20006;-93
2023/11/29 06:07:34;;;;;;;7.10;6.30;;;1.20;88.80;;;;;;5018339;28;20098;-93
2023/11/29 06:10:00;;;;;;;7.75;5.32;;;1.20;88.90;;;;;;5016460;28;20073;-94
2023/11/29 06:12:28;;;;;;;7.78;5.65;;;1.20;88.90;;;;;;5020074;28;20148;-93
2023/11/29 06:15:14;;;;;;;7.97;5.53;;;1.20;89.20;;;;;;5002053;28;20025;-93
2023/11/29 06:17:40;;;;;;;7.45;5.18;;;1.10;88.80;;;;;;5018392;28;20026;-93
2023/11/29 06:20:09;;;;;;;7.45;5.63;;;1.10;89.30;;;;;;5019646;28;20022;-93
2023/11/29 06:22:38;;;;;;;8.32;5.63;;;1.10;88.20;;;;;;5020635;28;20526;-94
2023/11/29 06:25:10;;;;;;;6.97;4.80;;;1.10;88.70;;;;;;5011377;28;20029;-93
2023/11/29 06:27:36;;;;;;;7.95;5.75;;;1.00;88.20;;;;;;5015621;28;20524;-93
2023/11/29 06:30:08;;;;;;;7.00;5.03;;;1.10;87.60;;;;;;5017130;28;20015;-92
2023/11/29 06:32:36;;;;;;;7.05;5.70;;;1.10;87.20;;;;;;5015852;28;20017;-92
2023/11/29 06:35:02;;;;;;;9.60;6.45;;;1.20;87.60;;;;;;5021081;28;20041;-94
2023/11/29 06:37:33;;;;;;;9.60;5.85;;;1.20;86.50;;;;;;5011169;28;20081;-93
2023/11/29 06:39:59;;;;;;;8.18;5.57;;;1.30;86.40;;;;;;5018991;28;20094;-94
2023/11/29 06:42:34;;;;;;;6.80;4.50;;;1.30;86.40;;;;;;5019192;28;20326;-95
2023/11/29 06:45:03;;;;;;;6.18;4.70;;;1.30;85.10;;;;;;5014581;28;20088;-93
2023/11/29 06:47:37;;;;;;;6.75;5.03;;;1.40;85.60;;;;;;5018336;28;20033;-93
2023/11/29 06:50:06;;;;;;;8.65;5.18;;;1.40;84.60;;;;;;5017733;28;20452;-93
2023/11/29 06:52:32;;;;;;;8.85;5.47;;;1.50;84.10;;;;;;5020890;28;20131;-94
2023/11/29 06:55:01;;;;;;;5.85;4.88;;;1.40;84.90;;;;;;5020744;28;20047;-94
2023/11/29 06:57:27;;;;;;;5.93;5.13;;;1.50;84.00;;;;;;5003752;28;20033;-92
2023/11/29 06:59:52;;;;;;;8.48;5.85;;;1.50;83.40;;;;;;5019620;28;20033;-93
2023/11/29 07:02:18;;;;;;;7.93;5.72;;;1.50;83.70;;;;;;5020508;28;20032;-95
2023/11/29 07:04:44;;;;;;;8.98;5.25;;;1.60;84.30;;;;;;5021778;28;20092;-94
2023/11/29 07:07:15;;;;;;;7.30;5.53;;;1.50;84.10;;;;;;5019050;28;20048;-95
2023/11/29 07:09:43;;;;;;;6.68;5.00;;;1.50;83.70;;;;;;5002475;28;20030;-95
2023/11/29 07:12:09;;;;;;;7.80;5.10;;;1.60;83.20;;;;;;5011757;28;20037;-93
2023/11/29 07:14:35;;;;;;;7.53;5.43;;;1.50;83.20;;;;;;5010875;28;20052;-93
2023/11/29 07:17:01;;;;;;;6.55;5.85;;;1.60;82.90;;;;;;5009870;28;20951;-95
2023/11/29 07:19:33;;;;;;;9.98;5.65;;;1.60;84.00;;;;;;5009815;28;20257;-94
2023/11/29 07:22:06;;;;;;;7.03;4.97;;;1.60;82.60;;;;;;5017790;28;20026;-93
2023/11/29 07:24:33;;;;;;;6.85;4.82;;;1.60;83.30;;;;;;5007232;28;20224;-94
2023/11/29 07:26:59;;;;;;;9.55;5.50;;;1.60;83.10;;;;;;5013963;28;20519;-93
2023/11/29 07:29:27;;;;;;;6.85;4.25;;;1.60;84.10;;;;;;5022867;28;20030;-94
2023/11/29 07:31:54;;;;;;;7.97;5.10;;;1.60;84.20;;;;;;5016824;28;20084;-93
2023/11/29 07:34:20;;;;;;;6.68;5.47;;;1.60;84.70;;;;;;5016022;28;20036;-93
2023/11/29 07:36:51;;;;;;;8.15;6.53;;;1.60;84.80;;;;;;5016132;28;20126;-91
2023/11/29 07:39:18;;;;;;;5.97;5.38;;;1.60;85.40;;;;;;5016094;28;20084;-93
2023/11/29 07:41:44;;;;;;;6.32;5.57;;;1.60;84.70;;;;;;5017731;28;20044;-92
2023/11/29 07:44:10;;;;;;;5.45;4.93;;;1.60;85.20;;;;;;5009624;28;20093;-93
2023/11/29 07:46:36;;;;;;;5.22;4.72;;;1.60;84.60;;;;;;5019921;28;20022;-93
2023/11/29 07:49:03;;;;;;;5.93;4.85;;;1.60;83.80;;;;;;5018665;28;20025;-92
2023/11/29 07:51:29;;;;;;;8.00;5.35;;;1.70;83.00;;;;;;5018111;28;20032;-93
2023/11/29 07:53:55;;;;;;;8.38;4.93;;;1.70;85.60;;;;;;5016788;28;20030;-91
2023/11/29 07:56:23;;;;;;;7.03;5.00;;;1.60;88.10;;;;;;5011141;28;20025;-93
2023/11/29 07:58:51;;;;;;;;;;;1.50;92.10;;;;;;5017015;28;20026;-93
2023/11/29 08:01:17;;;;;;;9.80;5.70;;;1.30;96.90;;;;;;5017130;28;19932;-93
2023/11/29 08:03:42;;;;;;;8.20;5.50;;;1.10;99.90;;;;;;5017470;28;20021;-94
2023/11/29 08:06:09;;;;;;;10.70;7.32;;;0.90;99.90;;;;;;5009960;28;20026;-94
2023/11/29 08:08:34;;;;;;;8.48;6.00;;;0.70;99.90;;;;;;5015441;28;20026;-95
2023/11/29 08:11:00;;;;;;;11.05;6.00;;;0.60;99.90;;;;;;5010522;28;20094;-92
2023/11/29 08:13:26;;;;;;;11.80;6.85;;;0.50;99.90;;;;;;5005922;28;20026;-92
2023/11/29 08:15:53;;;;;;;11.50;7.85;;;0.60;99.90;;;;;;5014869;28;20026;-91
2023/11/29 08:18:19;;;;;;;11.02;7.32;;;0.60;99.90;;;;;;5012426;28;20476;-93
2023/11/29 08:20:45;;;;;;;11.57;6.90;;;0.60;99.90;;;;;;5015882;28;20022;-92
2023/11/29 08:23:11;;;;;;;13.27;7.22;;;0.70;99.90;;;;;;5003544;28;20034;-92
2023/11/29 08:25:37;;;;;;;10.25;5.93;;;0.70;99.90;;;;;;5013358;28;20050;-93
2023/11/29 08:28:02;;;;;;;12.43;8.10;;;0.80;99.90;;;;;;5009253;28;20538;-94
2023/11/29 08:30:28;;;;;;;11.73;7.22;;;0.90;99.90;;;;;;5015448;28;20060;-94
2023/11/29 08:32:54;;;;;;;13.38;5.95;;;1.00;99.90;;;;;;4997375;28;20319;-93
2023/11/29 08:35:19;;;;;;;10.60;7.15;;;1.10;99.90;;;;;;5011536;28;20032;-93
2023/11/29 08:37:45;;;;;;;7.45;6.07;;;1.20;99.90;;;;;;5016822;28;20022;-94
2023/11/29 08:40:11;;;;;;;7.82;5.47;;;1.30;99.20;;;;;;5015851;28;20093;-92
2023/11/29 08:42:37;;;;;;;9.35;5.57;;;1.40;98.40;;;;;;5018061;28;20037;-94
2023/11/29 08:45:04;;;;;;;7.97;6.22;;;1.50;95.60;;;;;;5014476;28;20026;-93
2023/11/29 08:47:30;;;;;;;8.57;5.90;;;1.60;94.80;;;;;;5019853;28;20017;-93
2023/11/29 08:49:56;;;;;;;8.95;5.68;;;1.70;93.20;;;;;;5021022;28;20037;-93
2023/11/29 08:52:22;;;;;;;8.10;6.10;;;1.80;92.00;;;;;;5021870;28;20030;-93
2023/11/29 08:54:49;;;;;;;7.72;5.38;;;1.90;90.60;;;;;;5023036;28;20028;-93
2023/11/29 08:57:17;;;;;;;6.85;4.38;;;1.80;88.80;;;;;;5025337;28;20025;-93
2023/11/29 08:59:45;;;;;;;7.88;6.90;;;1.90;88.70;;;;;;5021109;28;20033;-93
2023/11/29 09:02:11;;;;;;;5.88;4.65;;;1.90;88.40;;;;;;5020731;28;20110;-93
2023/11/29 09:04:40;;;;;;;7.03;5.35;;;1.90;87.20;;;;;;5020830;28;20053;-94
2023/11/29 09:07:08;;;;;;;7.30;4.70;;;1.90;88.70;;;;;;5021699;28;20026;-93
2023/11/29 09:09:34;;;;;;;7.47;5.30;;;1.80;89.30;;;;;;5020556;28;20053;-93
2023/11/29 09:12:00;;;;;;;6.85;6.03;;;1.80;90.70;;;;;;5021536;28;20052;-93
2023/11/29 09:14:26;;;;;;;5.80;4.60;;;1.80;89.30;;;;;;5004311;28;20031;-92
2023/11/29 09:16:52;;;;;;;6.13;4.05;;;1.80;90.80;;;;;;5014524;28;20018;-94
2023/11/29 09:19:18;;;;;;;7.07;6.43;;;1.90;89.50;;;;;;5017948;28;20026;-93
2023/11/29 09:21:43;;;;;;;6.53;4.45;;;1.90;89.00;;;;;;5018146;28;20086;-93
2023/11/29 09:24:10;;;;;;;6.75;5.88;;;2.00;87.10;;;;;;4999028;28;20504;-93
2023/11/29 09:26:36;;;;;;;6.10;4.55;;;2.00;86.40;;;;;;5001323;28;20033;-94
2023/11/29 09:29:02;;;;;;;6.63;5.68;;;2.10;85.70;;;;;;5018526;28;20026;-95
2023/11/29 09:31:27;;;;;;;7.97;4.70;;;2.20;86.50;;;;;;5013040;28;20109;-90
2023/11/29 09:33:53;;;;;;;6.47;5.15;;;2.30;86.00;;;;;;5012179;28;20094;-91
2023/11/29 09:36:19;;;;;;;4.70;3.95;;;2.30;88.00;;;;;;5019256;28;20055;-93
2023/11/29 09:38:44;;;;;;;5.88;4.65;;;2.20;84.40;;;;;;5018468;28;20033;-93
2023/11/29 09:41:11;;;;;;;6.20;5.20;;;2.30;86.00;;;;;;5019194;28;20022;-93
2023/11/29 09:43:38;;;;;;;5.18;4.13;;;2.20;87.30;;;;;;5003598;28;20026;-93
2023/11/29 09:46:04;;;;;;;6.45;5.05;;;2.30;89.30;;;;;;5019745;28;20026;-91
2023/11/29 09:48:33;;;;;;;9.00;5.30;;;2.20;90.10;;;;;;5019244;28;20025;-94
2023/11/29 09:51:01;;;;;;;7.53;5.20;;;2.20;89.80;;;;;;5020233;28;20022;-93
2023/11/29 09:53:28;;;;;;;6.85;5.43;;;2.20;90.10;;;;;;5015315;28;20642;-92
2023/11/29 09:55:56;;;;;;;7.40;5.30;;;2.20;89.90;;;;;;5016933;28;20044;-91
2023/11/29 09:58:23;;;;;;;5.53;4.88;;;2.20;89.30;;;;;;5018826;28;20082;-93
2023/11/29 10:00:49;;;;;;;6.80;5.03;;;2.30;87.00;;;;;;5007047;28;20065;-93
2023/11/29 10:03:15;;;;;;;6.75;4.95;;;2.30;87.60;;;;;;5007406;28;20117;-93
2023/11/29 10:05:48;;;;;;;5.68;4.22;;;2.50;87.60;;;;;;5009718;28;20038;-93
2023/11/29 10:08:21;;;;;;;5.63;4.55;;;2.50;87.10;;;;;;5013344;28;20025;-92
2023/11/29 10:10:48;;;;;;;6.85;5.32;;;2.60;85.10;;;;;;4998165;28;20070;-93
2023/11/29 10:13:17;;;;;;;5.30;4.43;;;2.70;85.50;;;;;;5005586;28;20080;-92
2023/11/29 10:15:49;;;;;;;5.75;4.00;;;2.60;84.70;;;;;;5019662;28;20339;-91
2023/11/29 10:18:17;;;;;;;10.07;5.00;;;2.50;85.80;;;;;;5017941;28;20050;-93
2023/11/29 10:21:01;;;;;;;6.63;4.35;;;2.50;86.90;;;;;;5001655;28;20241;-93
2023/11/29 10:23:28;;;;;;;7.03;5.25;;;2.60;88.40;;;;;;5008256;28;20018;-94
2023/11/29 10:25:56;;;;;;;5.97;4.25;;;2.70;87.60;;;;;;5008811;28;20037;-95
2023/11/29 10:28:25;;;;;;;7.03;4.85;;;2.70;86.00;;;;;;5013486;28;20022;-94
2023/11/29 10:30:51;;;;;;;5.85;3.92;;;2.70;85.40;;;;;;5019102;28;20025;-93
2023/11/29 10:33:17;;;;;;;6.15;4.50;;;2.90;85.20;;;;;;5004167;28;20030;-92
2023/11/29 10:35:43;;;;;;;6.88;4.30;;;2.90;82.00;;;;;;5011657;28;20108;-93
2023/11/29 10:38:20;;;;;;;6.15;4.32;;;3.30;82.40;;;;;;5012461;28;20030;-95
2023/11/29 10:40:47;;;;;;;4.57;3.60;;;3.60;81.70;;;;;;5007775;28;20045;-92
2023/11/29 10:43:17;;;;;;;5.55;4.28;;;3.50;78.40;;;;;;5008542;28;20119;-94
2023/11/29 10:45:54;;;;;;;5.45;4.40;;;3.40;77.70;;;;;;5009988;28;20044;-93
2023/11/29 10:48:24;;;;;;;5.05;4.43;;;3.30;77.50;;;;;;5008792;28;20030;-93
2023/11/29 10:50:50;;;;;;;5.15;4.47;;;3.20;77.00;;;;;;5009043;28;20030;-94
2023/11/29 10:53:16;;;;;;;5.32;4.80;;;3.30;76.80;;;;;;5009271;28;20049;-93
2023/11/29 10:55:44;;;;;;;5.53;5.03;;;3.80;77.50;;;;;;5006902;28;20038;-93
2023/11/29 10:58:28;;;;;;;4.53;3.72;;;4.20;74.10;;;;;;5008988;28;20109;-94
2023/11/29 11:01:02;;;;;;;4.30;3.70;;;4.40;72.40;;;;;;5014857;28;20841;-95
2023/11/29 11:03:49;;;;;;;5.07;4.07;;;4.50;70.30;;;;;;5011941;28;20068;-93
2023/11/29 11:06:21;;;;;;;4.88;4.30;;;4.70;68.40;;;;;;5018963;28;20030;-92
2023/11/29 11:08:55;;;;;;;4.65;4.22;;;4.70;70.70;;;;;;5015527;28;20101;-96
2023/11/29 11:11:40;;;;;;;6.00;4.45;;;4.40;70.30;;;;;;5017039;28;20045;-94
2023/11/29 11:14:32;;;;;;;4.70;4.10;;;4.60;70.40;;;;;;5013794;28;20105;-94
2023/11/29 11:17:09;;;;;;;6.13;4.47;;;4.80;69.70;;;;;;5004054;28;20057;-96
2023/11/29 11:19:42;;;;;;;6.68;4.63;;;5.00;69.00;;;;;;5020986;28;20034;-95
2023/11/29 11:22:15;;;;;;;5.07;4.30;;;5.20;68.20;;;;;;5021755;28;20492;-94
2023/11/29 11:25:03;;;;;;;4.72;3.45;;;5.00;68.20;;;;;;5019328;28;20034;-94
2023/11/29 11:27:36;;;;;;;5.82;4.75;;;4.90;69.50;;;;;;5017533;28;20014;-96
2023/11/29 11:30:22;;;;;;;4.60;3.70;;;4.70;71.10;;;;;;5018176;28;20029;-95
2023/11/29 11:32:58;;;;;;;4.53;3.58;;;4.40;71.90;;;;;;5015235;28;20052;-93
2023/11/29 11:35:25;;;;;;;6.00;4.28;;;4.60;72.20;;;;;;5018077;28;20068;-93
2023/11/29 11:37:57;;;;;;;6.63;4.85;;;4.80;72.80;;;;;;5016302;28;20030;-96
2023/11/29 11:40:36;;;;;;;4.55;3.47;;;5.00;72.30;;;;;;5018245;28;20563;-95
2023/11/29 11:43:02;;;;;;;6.57;4.55;;;4.90;70.90;;;;;;5021115;28;20081;-95
2023/11/29 11:45:36;;;;;;;5.03;3.95;;;4.80;72.50;;;;;;5026733;28;20029;-95
2023/11/29 11:48:28;;;;;;;6.07;4.18;;;4.90;72.10;;;;;;5026231;28;20006;-95
2023/11/29 11:50:54;;;;;;;5.15;4.13;;;4.70;73.70;;;;;;5022765;28;20064;-95
2023/11/29 11:53:20;;;;;;;5.70;3.80;;;4.60;73.90;;;;;;5015192;28;20034;-96
2023/11/29 11:55:51;;;;;;;4.65;4.05;;;4.50;72.80;;;;;;5019288;28;20098;-95
2023/11/29 11:58:28;;;;;;;5.03;3.63;;;4.40;74.00;;;;;;5021751;28;20059;-95
2023/11/29 12:00:54;;;;;;;5.40;3.75;;;4.30;73.80;;;;;;5019601;28;20010;-92
2023/11/29 12:03:20;;;;;;;5.40;4.05;;;4.20;75.10;;;;;;5012306;28;20143;-95
2023/11/29 12:05:46;;;;;;;5.30;3.90;;;4.30;74.20;;;;;;5017633;28;20344;-95
2023/11/29 12:08:24;;;;;;;7.22;6.30;;;4.10;74.30;;;;;;5016020;28;20365;-95
2023/11/29 12:10:52;;;;;;;5.03;4.43;;;4.00;75.60;;;;;;5019394;28;20123;-95
2023/11/29 12:13:18;;;;;;;4.88;3.35;;;4.00;75.00;;;;;;5008899;28;20037;-94
2023/11/29 12:15:43;;;;;;;5.47;3.70;;;4.00;76.50;;;;;;5013925;28;20038;-95
2023/11/29 12:18:18;;;;;;;5.40;4.00;;;4.00;77.40;;;;;;5013293;28;20094;-94
2023/11/29 12:20:44;;;;;;;;;;;3.70;83.00;;;;;;5015931;28;20053;-95
2023/11/29 12:23:12;;;;;;;5.47;4.03;;;3.50;85.50;;;;;;5016142;28;19916;-94
2023/11/29 12:25:39;;;;;;;6.68;5.07;;;3.30;89.50;;;;;;5024767;28;20045;-95
2023/11/29 12:28:05;;;;;;;6.25;4.30;;;3.00;94.80;;;;;;5019550;28;20089;-94
2023/11/29 12:30:41;;;;;;;6.65;5.22;;;2.70;99.20;;;;;;5018404;28;20057;-94
2023/11/29 12:33:15;;;;;;;9.15;5.53;;;2.60;99.90;;;;;;5018991;28;20041;-93
2023/11/29 12:35:44;;;;;;;7.45;5.18;;;2.60;99.90;;;;;;5022135;28;20044;-93
2023/11/29 12:38:12;;;;;;;9.98;7.80;;;2.70;99.90;;;;;;5021217;28;20084;-96
2023/11/29 12:40:38;;;;;;;8.15;5.47;;;2.70;99.90;;;;;;5028128;28;20064;-95
2023/11/29 12:43:04;;;;;;;6.22;5.45;;;2.80;98.40;;;;;;5016225;28;20026;-93
2023/11/29 12:45:29;;;;;;;7.65;4.32;;;2.90;97.50;;;;;;5018821;28;20511;-96
2023/11/29 12:48:04;;;;;;;9.45;6.03;;;2.90;95.90;;;;;;5019443;28;20044;-93
2023/11/29 12:50:33;;;;;;;7.75;4.60;;;3.00;98.80;;;;;;5022044;28;20065;-93
2023/11/29 12:52:59;;;;;;;6.93;4.95;;;3.00;98.60;;;;;;5021320;28;20026;-94
2023/11/29 12:55:28;;;;;;;7.30;5.38;;;3.00;99.90;;;;;;5021188;28;20090;-93